Shanghai, China
Current Conditions -  °F | °C
As of 12:30 PM on Monday 26 Jan 2015 (Local Time) from ZSSS Reporting Station
Haze Haze  
Wind Chill: 50°   Ceiling: Unl
Heat Index: 50°   Visibility: 2.5mi
Dew Point: 43°   Wind: 9mph
Humidity: 76%   Direction: 350°N
Pressure: 30.21"   Gusts: NA
Location:  31.23°N, 121.47°E
Report Text: ZSSS 260430Z 35004MPS 4000 BR SCT016 10/06 Q1023 NOSIG
Loading
Personal Weather Stations






























Interactive Weather Map New forecast layout! Learn more

10-Day Weather Forecast

Advertisements
Track Severe Weather on mobile